Georgetown, Connecticut
Current Conditions -  °F | °C
As of 11:53 PM on Saturday 22 Nov 2014 (Local Time) from KDXR Reporting Station
Clear Clear  
Wind Chill: 36°   Ceiling: Unl
Heat Index: 40°   Visibility: 10mi
Dew Point: 17°   Wind: 6mph
Humidity: 40%   Direction: 240°WSW
Pressure: 30.17"   Gusts: NA
Location:  41.26°N, 73.43°W
Report Text: KDXR 230453Z AUTO 24005KT 10SM CLR 04/M08 A3017 RMK AO2 SLP218 T00441083 400501094
Loading
Personal Weather Stations






























Interactive Weather Map New forecast layout! Learn more

10-Day Weather Forecast

Advertisements
Track Severe Weather on mobile